Time;durP1;ratioP1;P1;durP2;ratioP2;P2;SDS_P1;SDS_P2;PMS_P1;PMS_P2;Temp;Humidity;BMP_temperature;BMP_pressure;BME280_temperature;BME280_humidity;BME280_pressure;Samples;Min_cycle;Max_cycle;Signal;HPM_P1;HPM_P2
2022/01/26 00:10:43;;;;;;;14.40;9.10;;;;;;;-8.05;93.22;99756.13;4989092;28;20064;-73
2022/01/26 00:13:09;;;;;;;6.03;5.50;;;;;;;-8.07;92.75;99757.75;4976721;28;20057;-72
2022/01/26 00:15:35;;;;;;;17.98;9.70;;;;;;;-8.05;92.92;99746.00;4993012;28;20054;-73
2022/01/26 00:18:01;;;;;;;8.25;7.45;;;;;;;-8.08;92.81;99751.00;5010095;28;20054;-72
2022/01/26 00:20:37;;;;;;;10.80;8.35;;;;;;;-8.08;92.82;99749.28;4992558;28;20074;-73
2022/01/26 00:24:03;;;;;;;13.95;9.02;;;;;;;-8.08;92.99;99749.28;4992237;28;20053;-72
2022/01/26 00:26:07;;;;;;;12.25;8.88;;;;;;;-8.11;93.14;99745.84;4999345;28;20072;-74
2022/01/26 00:39:12;;;;;;;11.05;8.07;;;;;;;-8.10;93.17;99742.50;5009789;28;20073;-72
2022/01/26 00:41:40;;;;;;;17.45;9.27;;;;;;;-8.06;92.83;99746.81;4991983;28;20038;-72
2022/01/26 00:44:07;;;;;;;10.20;7.57;;;;;;;-8.09;92.51;99742.56;4976286;28;20149;-72
2022/01/26 00:46:35;;;;;;;15.73;9.10;;;;;;;-8.04;93.31;99742.63;4976302;28;20049;-73
2022/01/26 00:49:01;;;;;;;14.48;9.57;;;;;;;-8.00;92.97;99746.91;4992029;28;20418;-72
2022/01/26 00:51:28;;;;;;;10.52;8.07;;;;;;;-7.98;92.99;99745.25;5010453;28;20847;-72
2022/01/26 00:54:02;;;;;;;16.45;9.10;;;;;;;-8.00;92.42;99741.84;4993782;28;20157;-72
2022/01/26 00:56:28;;;;;;;12.68;8.40;;;;;;;-8.02;92.25;99749.44;5009744;28;20073;-72
2022/01/26 00:58:55;;;;;;;14.65;8.70;;;;;;;-8.00;92.60;99741.84;5009545;28;20669;-72
2022/01/26 01:01:21;;;;;;;9.10;6.72;;;;;;;-8.01;92.66;99745.19;5009463;28;20049;-72
2022/01/26 01:03:47;;;;;;;11.43;7.75;;;;;;;-8.05;92.30;99739.22;4992094;28;20049;-72
2022/01/26 01:06:26;;;;;;;5.32;4.82;;;;;;;-8.07;92.29;99740.88;4976787;28;20429;-71
2022/01/26 01:08:55;;;;;;;13.13;9.02;;;;;;;-8.08;92.80;99748.47;4995276;28;20057;-71
2022/01/26 01:11:21;;;;;;;20.63;12.13;;;;;;;-8.10;92.56;99745.91;4992145;28;20058;-71
2022/01/26 01:13:48;;;;;;;18.73;12.90;;;;;;;-8.06;92.90;99746.81;5009501;28;20065;-72
2022/01/26 01:16:17;;;;;;;16.88;11.68;;;;;;;-8.09;93.00;99737.50;5009022;28;20046;-71
2022/01/26 01:18:58;;;;;;;14.40;10.27;;;;;;;-8.05;92.36;99746.00;5009398;28;20046;-72
2022/01/26 01:22:05;;;;;;;14.85;10.75;;;;;;;-8.03;92.32;99739.25;4991668;28;20057;-71
2022/01/26 01:25:00;;;;;;;10.77;8.77;;;;;;;-8.03;92.76;99732.53;4991828;28;20671;-71
2022/01/26 01:27:42;;;;;;;17.75;9.20;;;;;;;-8.05;92.24;99740.94;5009054;28;20093;-72
2022/01/26 01:30:36;;;;;;;12.15;8.23;;;;;;;-7.99;92.31;99741.88;5009059;28;20053;-72
2022/01/26 01:33:06;;;;;;;17.20;9.25;;;;;;;-8.05;92.37;99740.94;5008355;28;20107;-72
2022/01/26 01:35:35;;;;;;;10.98;7.95;;;;;;;-8.07;92.75;99745.09;5009863;28;20053;-72
2022/01/26 01:38:08;;;;;;;15.15;9.73;;;;;;;-8.08;93.30;99738.34;5009455;28;20041;-71
2022/01/26 01:40:39;;;;;;;15.00;10.90;;;;;;;-8.03;92.75;99751.91;5014243;28;20049;-72
2022/01/26 01:43:05;;;;;;;15.93;9.80;;;;;;;-7.98;92.76;99735.13;5014736;28;20046;-71
2022/01/26 01:45:42;;;;;;;11.93;9.02;;;;;;;-8.00;92.47;99727.50;5015192;28;20057;-72
2022/01/26 01:48:08;;;;;;;13.38;9.05;;;;;;;-8.00;92.82;99721.59;5013032;28;20056;-73
2022/01/26 01:50:40;;;;;;;15.32;9.30;;;;;;;-8.00;92.80;99719.06;4993615;28;20160;-72
2022/01/26 01:53:10;;;;;;;21.83;10.00;;;;;;;-7.95;92.85;99720.00;4990277;28;20125;-72
2022/01/26 01:55:40;;;;;;;14.02;9.35;;;;;;;-7.96;92.22;99730.94;4991431;28;20054;-72
2022/01/26 01:58:07;;;;;;;16.30;10.38;;;;;;;-8.02;92.52;99743.50;5008546;28;20073;-72
2022/01/26 02:00:33;;;;;;;10.02;6.97;;;;;;;-8.11;92.75;99738.25;4991268;28;20136;-73
2022/01/26 02:03:00;;;;;;;8.82;7.18;;;;;;;-8.06;92.79;99741.75;4991011;28;20469;-72
2022/01/26 02:05:26;;;;;;;9.48;8.05;;;;;;;-8.10;93.01;99729.84;4990916;28;20046;-73
2022/01/26 02:07:52;;;;;;;17.88;10.93;;;;;;;-8.11;93.07;99729.00;5008806;28;20053;-72
2022/01/26 02:10:21;;;;;;;5.53;4.20;;;;;;;-8.13;93.49;99734.88;5008478;28;20042;-71
2022/01/26 02:12:50;;;;;;;13.45;7.47;;;;;;;-8.12;93.19;99737.44;5008241;28;20068;-71
2022/01/26 02:15:25;;;;;;;15.07;8.55;;;;;;;-8.15;93.64;99731.47;4975048;28;20056;-71
2022/01/26 02:56:12;;;;;;;8.85;5.90;;;;;;;-8.00;93.27;99752.84;5007735;28;20081;-72
2022/01/26 03:03:40;;;;;;;10.60;8.73;;;;;;;-7.96;93.16;99756.28;4998463;28;20049;-71
2022/01/26 03:06:11;;;;;;;13.07;9.07;;;;;;;-7.95;92.37;99745.31;5011090;28;20502;-72
2022/01/26 03:08:42;;;;;;;9.00;5.68;;;;;;;-7.96;92.94;99744.47;5011649;28;20049;-71
2022/01/26 03:11:14;;;;;;;13.57;7.07;;;;;;;-7.90;92.85;99738.63;5011382;28;20137;-73
2022/01/26 03:13:56;;;;;;;8.45;6.07;;;;;;;-7.83;92.16;99737.06;5011792;28;20054;-74
2022/01/26 03:16:31;;;;;;;14.90;9.73;;;;;;;-7.92;92.31;99730.19;5011653;28;20054;-74
2022/01/26 03:19:17;;;;;;;7.25;6.47;;;;;;;-7.91;92.08;99732.72;4993886;28;20053;-75
2022/01/26 03:29:58;;;;;;;12.40;9.32;;;;;;;-7.80;91.86;99743.03;5012285;28;20729;-74
2022/01/26 03:34:58;;;;;;;18.50;9.23;;;;;;;-7.75;92.23;99749.00;5011608;28;20129;-74
2022/01/26 03:37:32;;;;;;;15.82;10.00;;;;;;;-7.81;91.67;99738.78;5011289;28;20060;-74
2022/01/26 03:39:58;;;;;;;15.40;10.20;;;;;;;-7.76;92.08;99747.34;5010228;28;20517;-73
2022/01/26 03:42:24;;;;;;;14.43;8.95;;;;;;;-7.72;92.09;99749.06;5010861;28;20072;-72
2022/01/26 03:44:50;;;;;;;12.90;8.38;;;;;;;-7.68;92.43;99750.81;5026476;28;20054;-72
2022/01/26 03:47:17;;;;;;;13.82;8.68;;;;;;;-7.62;92.17;99753.44;5009593;28;20050;-74
2022/01/26 03:49:43;;;;;;;13.70;8.70;;;;;;;-7.62;91.75;99753.44;4993558;28;20042;-72
2022/01/26 03:52:10;;;;;;;15.77;8.30;;;;;;;-7.69;92.34;99744.03;5010693;28;20560;-73
2022/01/26 03:54:36;;;;;;;15.73;9.30;;;;;;;-7.66;92.12;99738.19;5010867;28;20124;-73
2022/01/26 03:57:02;;;;;;;17.05;9.23;;;;;;;-7.58;92.09;99755.22;5010590;28;20053;-73
2022/01/26 03:59:29;;;;;;;17.23;8.73;;;;;;;-7.56;91.93;99751.00;4993366;28;20057;-73
2022/01/26 04:01:55;;;;;;;8.45;7.25;;;;;;;-7.53;91.89;99758.69;5009490;28;20041;-73
2022/01/26 04:04:21;;;;;;;14.50;9.13;;;;;;;-7.50;92.15;99751.13;5009059;28;20054;-73
2022/01/26 04:06:47;;;;;;;15.32;9.60;;;;;;;-7.47;91.87;99741.03;4993068;28;20548;-72
2022/01/26 04:09:15;;;;;;;20.05;10.45;;;;;;;-7.49;91.60;99744.34;5026110;28;20058;-72
2022/01/26 04:11:46;;;;;;;15.77;9.13;;;;;;;-7.39;91.79;99751.25;5030022;28;20395;-72
2022/01/26 04:14:16;;;;;;;16.00;9.40;;;;;;;-7.43;92.07;99741.94;4997355;28;20144;-72
2022/01/26 04:16:42;;;;;;;20.77;10.93;;;;;;;-7.50;91.70;99753.66;5011542;28;20335;-72
2022/01/26 04:19:09;;;;;;;15.93;10.00;;;;;;;-7.53;91.33;99751.09;5012327;28;20053;-71
2022/01/26 04:21:48;;;;;;;13.70;8.25;;;;;;;-7.49;91.66;99745.22;5011881;28;20183;-71
2022/01/26 04:24:25;;;;;;;13.57;8.73;;;;;;;-7.47;91.30;99748.63;4961744;28;20053;-72
2022/01/26 04:27:06;;;;;;;15.38;9.70;;;;;;;-7.46;91.60;99750.31;5010397;28;20062;-72
2022/01/26 04:29:33;;;;;;;13.53;7.47;;;;;;;-7.49;91.47;99751.94;5010122;28;20046;-71
2022/01/26 04:32:01;;;;;;;15.45;9.48;;;;;;;-7.45;90.96;99754.56;5009788;28;20580;-72
2022/01/26 04:34:27;;;;;;;16.27;10.57;;;;;;;-7.38;91.01;99748.75;5009835;28;20467;-72
2022/01/26 04:36:59;;;;;;;14.90;9.95;;;;;;;-7.44;91.05;99751.22;4992706;28;20079;-72
2022/01/26 04:39:31;;;;;;;14.88;9.15;;;;;;;-7.39;91.48;99749.59;4993342;28;20049;-72
2022/01/26 04:42:06;;;;;;;21.27;10.98;;;;;;;-7.38;91.24;99746.22;4962528;28;20058;-72
2022/01/26 04:44:45;;;;;;;19.73;9.95;;;;;;;-7.32;91.66;99749.66;5012087;28;20046;-72
2022/01/26 04:47:11;;;;;;;17.88;8.88;;;;;;;-7.32;91.61;99742.06;5008016;28;20127;-72
2022/01/26 04:49:37;;;;;;;17.55;10.23;;;;;;;-7.29;91.62;99748.03;4989022;28;20609;-73
2022/01/26 04:52:03;;;;;;;15.32;9.68;;;;;;;-7.28;91.25;99741.28;4956403;28;20054;-73
2022/01/26 04:54:30;;;;;;;17.77;10.50;;;;;;;-7.26;91.62;99750.63;4991269;28;20518;-72
2022/01/26 04:56:56;;;;;;;6.65;5.53;;;;;;;-7.21;91.46;99753.22;4993430;28;20050;-72
2022/01/26 04:59:22;;;;;;;14.75;7.35;;;;;;;-7.19;91.69;99749.88;4990834;28;20573;-72
2022/01/26 05:01:47;;;;;;;17.75;8.77;;;;;;;-7.18;91.63;99743.13;4990024;28;20081;-72
2022/01/26 05:04:14;;;;;;;16.00;9.38;;;;;;;-7.17;91.23;99745.69;4988241;28;20101;-72
2022/01/26 05:06:40;;;;;;;13.38;9.27;;;;;;;-7.20;91.01;99743.13;4990075;28;20054;-70
2022/01/26 05:09:05;;;;;;;20.63;10.57;;;;;;;-7.15;91.61;99741.47;4989934;28;20080;-72
2022/01/26 05:11:41;;;;;;;19.83;10.50;;;;;;;-7.11;91.20;99739.84;4972247;28;20085;-72
2022/01/26 05:14:07;;;;;;;17.08;11.27;;;;;;;-7.09;90.81;99738.16;4972148;28;20629;-72
2022/01/26 05:16:33;;;;;;;17.90;11.15;;;;;;;-7.06;90.70;99738.22;4989551;28;20278;-72
2022/01/26 05:18:59;;;;;;;22.83;12.15;;;;;;;-6.99;91.23;99735.78;4956284;28;20501;-72
2022/01/26 05:21:26;;;;;;;19.02;10.70;;;;;;;-6.98;91.37;99729.03;5000523;28;20049;-72
2022/01/26 05:23:52;;;;;;;22.10;11.93;;;;;;;-6.90;90.90;99720.69;4991588;28;20054;-72
2022/01/26 05:26:18;;;;;;;9.35;6.15;;;;;;;-6.82;90.46;99718.25;4991821;28;20042;-72
2022/01/26 05:28:44;;;;;;;21.05;12.20;;;;;;;-6.68;91.61;99714.19;4991835;28;20050;-73
2022/01/26 05:31:10;;;;;;;26.48;15.75;;;;;;;-6.59;91.18;99710.91;4991399;28;20049;-72
2022/01/26 05:33:37;;;;;;;24.42;12.45;;;;;;;-6.59;90.65;99710.91;4991377;28;20116;-72
2022/01/26 05:36:03;;;;;;;25.60;15.20;;;;;;;-6.56;91.02;99716.00;5007232;28;20057;-72
2022/01/26 05:38:29;;;;;;;23.35;15.05;;;;;;;-6.54;91.14;99720.25;4981538;28;20045;-72
2022/01/26 05:40:56;;;;;;;27.10;13.98;;;;;;;-6.54;90.91;99717.72;4998826;28;20080;-72
2022/01/26 05:43:22;;;;;;;27.63;14.60;;;;;;;-6.47;90.97;99727.09;5009683;28;20537;-72
2022/01/26 05:45:52;;;;;;;31.85;14.90;;;;;;;-6.49;91.21;99731.31;5025539;28;20199;-72
2022/01/26 05:48:18;;;;;;;19.38;11.68;;;;;;;-6.47;91.15;99729.66;5010009;28;20064;-73
2022/01/26 05:50:53;;;;;;;26.40;12.95;;;;;;;-6.45;91.05;99727.13;5028035;28;20054;-72
2022/01/26 05:53:22;;;;;;;32.22;15.27;;;;;;;-6.43;90.87;99736.47;5027929;28;20041;-73
2022/01/26 05:55:53;;;;;;;30.48;16.10;;;;;;;-6.46;91.36;99731.34;5010634;28;20087;-71
2022/01/26 05:58:19;;;;;;;19.95;12.45;;;;;;;-6.42;90.82;99735.63;5010237;28;20047;-72
2022/01/26 06:00:46;;;;;;;27.30;14.68;;;;;;;-6.40;91.18;99736.50;4994272;28;20077;-72
2022/01/26 06:03:15;;;;;;;27.85;12.68;;;;;;;-6.34;90.97;99739.09;5027511;28;20111;-72
2022/01/26 06:05:41;;;;;;;33.45;15.43;;;;;;;-6.32;90.14;99746.75;5027284;28;20119;-72
2022/01/26 06:08:07;;;;;;;31.20;14.93;;;;;;;-6.30;90.37;99744.19;5028173;28;20517;-73
2022/01/26 06:10:33;;;;;;;37.88;14.80;;;;;;;-6.29;90.14;99738.31;5009834;28;20045;-73
2022/01/26 06:12:59;;;;;;;34.78;16.90;;;;;;;-6.29;90.23;99740.84;5028072;28;20057;-73
2022/01/26 06:15:26;;;;;;;31.63;15.48;;;;;;;-6.28;90.66;99732.41;5028064;28;20049;-74
2022/01/26 06:17:52;;;;;;;21.63;12.27;;;;;;;-6.25;90.88;99728.19;4994477;28;20065;-72
2022/01/26 06:20:18;;;;;;;34.58;18.08;;;;;;;-6.21;90.41;99739.22;4983045;28;20558;-72
2022/01/26 06:22:44;;;;;;;26.13;14.65;;;;;;;-6.19;90.64;99737.56;4982500;28;20050;-73
2022/01/26 06:25:10;;;;;;;25.85;13.48;;;;;;;-6.17;91.37;99735.88;4980204;28;20092;-72
2022/01/26 06:27:37;;;;;;;29.52;16.40;;;;;;;-6.17;91.32;99734.19;4995386;28;20137;-73
2022/01/26 06:30:07;;;;;;;34.67;16.30;;;;;;;-6.16;91.57;99738.44;4966083;28;20064;-74
2022/01/26 06:32:34;;;;;;;29.27;15.55;;;;;;;-6.13;91.36;99732.53;4991957;28;20148;-72
2022/01/26 06:35:00;;;;;;;36.90;16.45;;;;;;;-6.06;91.15;99740.25;4977474;28;20046;-72
2022/01/26 06:37:26;;;;;;;44.40;20.15;;;;;;;-6.04;91.22;99735.16;4971554;28;20510;-73
2022/01/26 06:39:52;;;;;;;39.83;18.35;;;;;;;-6.01;91.04;99747.88;4963207;28;20050;-73
2022/01/26 06:42:23;;;;;;;38.00;17.63;;;;;;;-6.04;91.68;99742.78;4993018;28;20080;-73
2022/01/26 06:45:09;;;;;;;50.10;21.65;;;;;;;-142.02;100.00;61695.09;4998519;28;20101;-72
2022/01/26 06:50:18;;;;;;;39.50;18.67;;;;;;;-142.02;100.00;61695.09;4977499;28;20477;-73
2022/01/26 06:52:46;;;;;;;33.20;15.20;;;;;;;-6.02;91.68;99757.19;4982347;28;20137;-73
2022/01/26 06:55:13;;;;;;;34.25;16.52;;;;;;;-6.05;92.01;99751.25;4974831;28;20445;-72
2022/01/26 06:57:39;;;;;;;44.05;22.23;;;;;;;-142.02;100.00;61695.09;4999860;28;20049;-72
2022/01/26 07:00:06;;;;;;;27.63;13.50;;;;;;;-142.02;100.00;61695.09;4981065;28;20461;-72
2022/01/26 07:02:32;;;;;;;29.60;15.52;;;;;;;-142.02;100.00;61695.09;4994988;28;20039;-72
2022/01/26 07:04:58;;;;;;;21.05;12.05;;;;;;;-142.02;100.00;61695.09;4978870;28;20055;-71
2022/01/26 07:07:24;;;;;;;32.85;14.38;;;;;;;-142.02;100.00;61695.09;5002457;28;20794;-73
2022/01/26 07:09:50;;;;;;;25.35;14.27;;;;;;;-142.02;100.00;61695.09;4996658;28;20049;-72
2022/01/26 07:12:16;;;;;;;32.15;14.73;;;;;;;-142.02;100.00;61695.09;4961132;28;20505;-72
2022/01/26 07:21:05;;;;;;;29.88;12.20;;;;;;;-142.02;100.00;61695.09;4995308;28;20046;-72
2022/01/26 07:23:07;;;;;;;42.50;17.70;;;;;;;-142.02;100.00;61695.09;4997045;28;20098;-73
2022/01/26 07:25:33;;;;;;;40.63;16.15;;;;;;;-142.02;100.00;61695.09;4993065;28;20050;-71
2022/01/26 07:28:02;;;;;;;34.35;16.02;;;;;;;-142.02;100.00;61695.09;4998901;28;20088;-72
2022/01/26 07:30:29;;;;;;;31.58;15.07;;;;;;;-142.02;100.00;61695.09;4980420;28;20050;-75
2022/01/26 07:32:55;;;;;;;35.88;15.93;;;;;;;-142.02;100.00;61695.09;4995210;28;20049;-72
2022/01/26 07:35:21;;;;;;;31.10;16.35;;;;;;;-142.02;100.00;61695.09;4996680;28;20053;-72
2022/01/26 07:37:48;;;;;;;30.70;16.80;;;;;;;-142.02;100.00;61695.09;4982406;28;20046;-74
2022/01/26 07:40:14;;;;;;;45.97;19.02;;;;;;;-142.02;100.00;61695.09;5008039;28;20521;-71
2022/01/26 07:42:41;;;;;;;47.38;20.35;;;;;;;-142.02;100.00;61695.09;4991775;28;20584;-76
2022/01/26 07:45:08;;;;;;;35.75;17.63;;;;;;;-142.02;100.00;61695.09;4994775;28;20421;-72
2022/01/26 07:47:34;;;;;;;46.83;19.92;;;;;;;-142.02;100.00;61695.09;4948547;28;20054;-72
2022/01/26 07:50:06;;;;;;;47.25;20.42;;;;;;;-142.02;100.00;61695.09;4964652;28;20045;-73
2022/01/26 07:52:37;;;;;;;35.50;17.80;;;;;;;-142.02;100.00;61695.09;5000390;28;20061;-71
2022/01/26 07:55:04;;;;;;;34.07;16.87;;;;;;;-142.02;100.00;61695.09;4984433;28;20637;-73
2022/01/26 07:57:30;;;;;;;35.25;16.25;;;;;;;-142.02;100.00;61695.09;4996819;28;20524;-73
2022/01/26 07:59:56;;;;;;;27.67;16.20;;;;;;;-142.02;100.00;61695.09;5002769;28;20450;-72
2022/01/26 08:02:23;;;;;;;27.15;15.05;;;;;;;-142.02;100.00;61695.09;4997670;28;20050;-72
2022/01/26 08:04:49;;;;;;;35.42;16.58;;;;;;;-142.02;100.00;61695.09;4982714;28;20477;-72
2022/01/26 08:07:15;;;;;;;24.13;11.52;;;;;;;-142.02;100.00;61695.09;4982590;28;20048;-73
2022/01/26 08:09:44;;;;;;;37.60;18.00;;;;;;;-142.02;100.00;61695.09;5005507;28;20045;-74
2022/01/26 08:12:11;;;;;;;29.00;15.68;;;;;;;-142.02;100.00;61695.09;5003066;28;20054;-72
2022/01/26 08:14:37;;;;;;;35.85;19.42;;;;;;;-142.02;100.00;61695.09;5001134;28;20123;-73
2022/01/26 08:17:04;;;;;;;37.70;18.27;;;;;;;-142.02;100.00;61695.09;4998284;28;20050;-72
2022/01/26 08:19:30;;;;;;;31.83;16.35;;;;;;;-142.02;100.00;61695.09;5000360;28;20059;-73
2022/01/26 08:22:00;;;;;;;28.55;14.65;;;;;;;-142.02;100.00;61695.09;5001871;28;20431;-72
2022/01/26 08:24:27;;;;;;;26.58;14.68;;;;;;;-142.02;100.00;61695.09;4991924;28;20042;-72
2022/01/26 08:26:55;;;;;;;37.10;17.17;;;;;;;-142.02;100.00;61695.09;4987755;28;20056;-72
2022/01/26 08:29:31;;;;;;;32.13;18.85;;;;;;;-142.02;100.00;61695.09;4979951;28;20054;-73
2022/01/26 08:31:58;;;;;;;33.67;17.58;;;;;;;-142.02;100.00;61695.09;4966574;28;20050;-72
2022/01/26 08:34:24;;;;;;;34.03;19.75;;;;;;;-142.02;100.00;61695.09;5000217;28;20101;-72
2022/01/26 08:36:53;;;;;;;29.38;15.20;;;;;;;-142.02;100.00;61695.09;5001691;28;20046;-73
2022/01/26 08:40:14;;;;;;;22.83;12.35;;;;;;;-142.02;100.00;61695.09;4999707;28;20049;-72
2022/01/26 08:42:33;;;;;;;19.38;11.85;;;;;;;-142.02;100.00;61695.09;4995347;28;20518;-72
2022/01/26 08:45:00;;;;;;;15.85;10.38;;;;;;;-142.02;100.00;61695.09;4966608;28;20518;-73
2022/01/26 08:47:26;;;;;;;17.27;12.38;;;;;;;-142.02;100.00;61695.09;5001589;28;20152;-73
2022/01/26 08:49:52;;;;;;;24.15;14.35;;;;;;;-142.02;100.00;61695.09;4999511;28;20661;-71
2022/01/26 08:52:18;;;;;;;23.30;11.95;;;;;;;-142.02;100.00;61695.09;5004044;28;20050;-73
2022/01/26 08:54:44;;;;;;;15.48;9.35;;;;;;;-142.02;100.00;61695.09;4998202;28;20097;-72
2022/01/26 08:57:11;;;;;;;11.35;6.72;;;;;;;-142.02;100.00;61695.09;4998762;28;20053;-72
2022/01/26 08:59:37;;;;;;;25.98;15.32;;;;;;;-142.02;100.00;61695.09;4996860;28;20042;-72
2022/01/26 09:02:03;;;;;;;22.20;10.57;;;;;;;-142.02;100.00;61695.09;5001558;28;20069;-72
2022/01/26 09:04:30;;;;;;;20.95;11.40;;;;;;;-142.02;100.00;61695.09;5002653;28;20125;-72
2022/01/26 09:06:58;;;;;;;27.02;15.52;;;;;;;-142.02;100.00;61695.09;5002254;28;20065;-72
2022/01/26 09:09:26;;;;;;;19.95;11.88;;;;;;;-142.02;100.00;61695.09;4999764;28;20069;-73
2022/01/26 09:11:55;;;;;;;28.52;14.77;;;;;;;-142.02;100.00;61695.09;4989915;28;20191;-73
2022/01/26 09:14:24;;;;;;;26.60;13.50;;;;;;;-142.02;100.00;61695.09;5001929;28;20058;-72
2022/01/26 09:16:52;;;;;;;17.75;11.65;;;;;;;-142.02;100.00;61695.09;4995447;28;20470;-72
2022/01/26 09:19:29;;;;;;;25.58;14.80;;;;;;;-142.02;100.00;61695.09;4965342;28;20105;-73
2022/01/26 09:21:57;;;;;;;23.00;15.80;;;;;;;-142.02;100.00;61695.09;5007589;28;20857;-72
2022/01/26 09:24:25;;;;;;;20.40;11.45;;;;;;;-142.02;100.00;61695.09;4998592;28;20050;-72
2022/01/26 09:26:51;;;;;;;24.77;13.02;;;;;;;-142.02;100.00;61695.09;4998226;28;20108;-72
2022/01/26 09:29:17;;;;;;;17.58;11.35;;;;;;;-142.02;100.00;61695.09;4946517;28;20046;-71
2022/01/26 09:31:47;;;;;;;20.42;13.13;;;;;;;-142.02;100.00;61695.09;4997727;28;20516;-71
2022/01/26 09:34:16;;;;;;;20.05;11.57;;;;;;;-142.02;100.00;61695.09;5003453;28;20054;-72
2022/01/26 09:36:43;;;;;;;23.85;14.55;;;;;;;-142.02;100.00;61695.09;4999153;28;20060;-72
2022/01/26 09:39:09;;;;;;;27.42;16.40;;;;;;;-142.02;100.00;61695.09;4994373;28;20153;-73
2022/01/26 09:41:37;;;;;;;18.05;10.38;;;;;;;-142.02;100.00;61695.09;4965255;28;20041;-71
2022/01/26 09:44:03;;;;;;;23.90;10.98;;;;;;;-142.02;100.00;61695.09;4978713;28;20050;-72
2022/01/26 09:46:30;;;;;;;22.00;12.88;;;;;;;-142.02;100.00;61695.09;4997545;28;20049;-72
2022/01/26 09:48:56;;;;;;;30.30;15.13;;;;;;;-142.02;100.00;61695.09;4980322;28;20047;-75
2022/01/26 09:51:22;;;;;;;18.13;11.07;;;;;;;-142.02;100.00;61695.09;5000392;28;20463;-72
2022/01/26 09:54:11;;;;;;;27.65;12.43;;;;;;;-142.02;100.00;61695.09;4982330;28;20058;-72
2022/01/26 09:56:37;;;;;;;16.40;10.48;;;;;;;-142.02;100.00;61695.09;4995653;28;20077;-72
2022/01/26 09:59:03;;;;;;;28.17;14.35;;;;;;;-142.02;100.00;61695.09;4979548;28;20141;-72
2022/01/26 10:01:43;;;;;;;14.18;9.23;;;;;;;-142.02;100.00;61695.09;4995571;28;20108;-72
2022/01/26 10:04:29;;;;;;;26.00;15.68;;;;;;;-142.02;100.00;61695.09;5004443;28;20057;-73
2022/01/26 10:07:05;;;;;;;22.08;11.45;;;;;;;-142.02;100.00;61695.09;4998932;28;20052;-72
2022/01/26 10:17:42;;;;;;;20.70;12.65;;;;;;;-142.02;100.00;61695.09;4998846;28;20058;-72
2022/01/26 10:20:17;;;;;;;25.35;11.57;;;;;;;-142.02;100.00;61695.09;4979401;28;20049;-73
2022/01/26 10:22:43;;;;;;;21.90;11.32;;;;;;;-142.02;100.00;61695.09;4995509;28;20086;-72
2022/01/26 10:25:17;;;;;;;22.75;11.23;;;;;;;-142.02;100.00;61695.09;4978861;28;20050;-72
2022/01/26 10:27:48;;;;;;;25.17;15.45;;;;;;;-142.02;100.00;61695.09;4994471;28;20538;-72
2022/01/26 10:30:16;;;;;;;23.92;13.50;;;;;;;-142.02;100.00;61695.09;4995065;28;20068;-74
2022/01/26 10:32:42;;;;;;;21.08;10.73;;;;;;;-142.02;100.00;61695.09;4980547;28;20594;-72
2022/01/26 10:35:08;;;;;;;27.08;13.70;;;;;;;-142.02;100.00;61695.09;4982395;28;20042;-72
2022/01/26 10:37:35;;;;;;;23.90;11.88;;;;;;;-142.02;100.00;61695.09;4966579;28;20410;-73
2022/01/26 10:40:14;;;;;;;15.00;10.18;;;;;;;-142.02;100.00;61695.09;5001331;28;20053;-72
2022/01/26 10:43:06;;;;;;;19.08;11.23;;;;;;;-142.02;100.00;61695.09;4996758;28;20251;-72
2022/01/26 10:46:12;;;;;;;20.50;12.52;;;;;;;-142.02;100.00;61695.09;4970356;28;20050;-73
2022/01/26 10:49:31;;;;;;;28.38;13.18;;;;;;;-142.02;100.00;61695.09;4995811;28;20588;-72
2022/01/26 10:52:03;;;;;;;25.67;14.30;;;;;;;-142.02;100.00;61695.09;4860276;29;20056;-72
2022/01/26 10:54:45;;;;;;;20.27;11.90;;;;;;;-142.02;100.00;61695.09;4901508;28;20481;-73
2022/01/26 10:57:36;;;;;;;17.80;10.10;;;;;;;-142.02;100.00;61695.09;4999157;28;20121;-72
2022/01/26 11:00:19;;;;;;;20.42;10.95;;;;;;;-142.02;100.00;61695.09;4983300;28;20068;-72
2022/01/26 11:02:49;;;;;;;17.80;10.65;;;;;;;-142.02;100.00;61695.09;4965402;28;20057;-71
2022/01/26 11:05:16;;;;;;;28.55;14.60;;;;;;;-142.02;100.00;61695.09;4995957;28;20053;-71
2022/01/26 11:07:43;;;;;;;22.38;12.48;;;;;;;-142.02;100.00;61695.09;4962192;28;20482;-71
2022/01/26 11:10:20;;;;;;;22.48;11.13;;;;;;;-142.02;100.00;61695.09;4966510;28;20156;-72
2022/01/26 11:12:54;;;;;;;13.27;7.75;;;;;;;-142.02;100.00;61695.09;4996197;28;20137;-72
2022/01/26 11:15:22;;;;;;;19.17;10.75;;;;;;;-142.02;100.00;61695.09;4984269;28;20197;-72
2022/01/26 11:17:48;;;;;;;26.80;13.10;;;;;;;-142.02;100.00;61695.09;4997521;28;20100;-71
2022/01/26 11:20:40;;;;;;;17.63;10.07;;;;;;;-142.02;100.00;61695.09;5016041;28;20050;-71
2022/01/26 11:23:57;;;;;;;13.38;9.48;;;;;;;-142.02;100.00;61695.09;5008724;28;20529;-71
2022/01/26 11:27:05;;;;;;;14.18;10.63;;;;;;;-142.02;100.00;61695.09;4993488;28;20092;-72
2022/01/26 11:29:37;;;;;;;14.02;9.88;;;;;;;-142.02;100.00;61695.09;5025993;28;20041;-72
2022/01/26 11:32:20;;;;;;;27.77;11.10;;;;;;;-142.02;100.00;61695.09;5013139;28;20110;-71
2022/01/26 11:34:52;;;;;;;16.15;8.38;;;;;;;-142.02;100.00;61695.09;5031613;28;20049;-71
2022/01/26 11:38:29;;;;;;;11.55;8.88;;;;;;;-142.02;100.00;61695.09;5002447;28;20536;-71
2022/01/26 11:47:08;;;;;;;13.27;8.67;;;;;;;-142.02;100.00;61695.09;5030844;28;20016;-72
2022/01/26 11:49:39;;;;;;;5.75;5.20;;;;;;;-142.02;100.00;61695.09;4997617;28;20299;-71
2022/01/26 11:52:21;;;;;;;9.68;7.63;;;;;;;-142.02;100.00;61695.09;5030353;28;20045;-72
2022/01/26 11:54:55;;;;;;;20.75;7.82;;;;;;;-142.02;100.00;61695.09;4999071;28;20045;-72
2022/01/26 11:57:37;;;;;;;6.22;5.63;;;;;;;-142.02;100.00;61695.09;5030942;28;20130;-72
2022/01/26 12:00:06;;;;;;;8.80;7.68;;;;;;;-142.02;100.00;61695.09;5031000;28;20053;-72
2022/01/26 12:05:14;;;;;;;9.30;7.28;;;;;;;-142.02;100.00;61695.09;5032145;28;20076;-72
2022/01/26 12:07:50;;;;;;;11.90;7.53;;;;;;;-142.02;100.00;61695.09;5030737;28;20537;-72
2022/01/26 12:10:26;;;;;;;11.07;7.60;;;;;;;-142.02;100.00;61695.09;5014518;28;20053;-71
2022/01/26 12:13:04;;;;;;;12.32;8.73;;;;;;;-142.02;100.00;61695.09;5031864;28;20049;-72
2022/01/26 12:16:14;;;;;;;9.93;8.73;;;;;;;-142.02;100.00;61695.09;5014157;28;20062;-72
2022/01/26 12:32:19;;;;;;;8.63;5.05;;;;;;;-142.02;100.00;61695.09;5000537;28;20505;-72
2022/01/26 12:35:01;;;;;;;10.35;7.43;;;;;;;-142.02;100.00;61695.09;4978510;28;20050;-72
2022/01/26 12:45:22;;;;;;;8.88;6.40;;;;;;;-142.02;100.00;61695.09;5011680;28;20052;-72
2022/01/26 12:47:50;;;;;;;8.07;6.80;;;;;;;-142.02;100.00;61695.09;4994830;28;20046;-71
2022/01/26 12:50:17;;;;;;;9.27;6.97;;;;;;;-142.02;100.00;61695.09;4987405;28;20073;-72
2022/01/26 12:52:51;;;;;;;8.65;7.75;;;;;;;-142.02;100.00;61695.09;4994478;28;20796;-71
2022/01/26 12:55:26;;;;;;;9.65;6.60;;;;;;;-142.02;100.00;61695.09;4970095;28;20053;-71
2022/01/26 12:57:52;;;;;;;10.13;7.38;;;;;;;-142.02;100.00;61695.09;5014234;28;20055;-71
2022/01/26 13:00:18;;;;;;;10.00;8.25;;;;;;;-142.02;100.00;61695.09;4993135;28;20085;-71
2022/01/26 13:02:44;;;;;;;9.73;7.13;;;;;;;-142.02;100.00;61695.09;4994092;28;20038;-71
2022/01/26 13:05:11;;;;;;;7.85;6.22;;;;;;;-142.02;100.00;61695.09;5011372;28;20595;-72
2022/01/26 13:07:37;;;;;;;8.52;7.53;;;;;;;-142.02;100.00;61695.09;5003007;28;20521;-71
2022/01/26 13:10:16;;;;;;;9.35;7.68;;;;;;;-142.02;100.00;61695.09;4981124;28;20099;-70
2022/01/26 13:12:42;;;;;;;16.30;8.35;;;;;;;-142.02;100.00;61695.09;5013804;28;20057;-70
2022/01/26 13:15:25;;;;;;;12.38;7.07;;;;;;;-142.02;100.00;61695.09;5013451;28;20579;-72
2022/01/26 13:18:05;;;;;;;8.13;6.78;;;;;;;-142.02;100.00;61695.09;4999442;28;20141;-71
2022/01/26 13:21:12;;;;;;;4.88;4.45;;;;;;;-142.02;100.00;61695.09;4998322;28;20055;-70
2022/01/26 13:24:17;;;;;;;16.75;8.38;;;;;;;-142.02;100.00;61695.09;5001858;28;20057;-71
2022/01/26 13:35:38;;;;;;;11.80;4.88;;;;;;;-142.02;100.00;61695.09;4984925;28;20077;-71
2022/01/26 13:38:26;;;;;;;10.93;5.88;;;;;;;-142.02;100.00;61695.09;4996513;28;20046;-71